Latest Weather Observations for Point Fawcett

IDD60901

Issued at 10:01 am CST Monday 21 August 2017 (issued every 10 minutes, with the page automatically refreshed every 10 minutes)

About weather observations | Map of Darwin area stations | Latest observations for Darwin area | Other Formats
Station Details ID: 200731 Name: POINT FAWCETT Lat: -11.76 Lon: 130.03 Height: 6.5 m
Data from the previous 72 hours. | See also: Recent months at Point Fawcett
Date/Time
CST
Temp
°C
App
Temp
°C
Dew
Point
°C
Rel
Hum
%
Delta-T
°C
Wind Press
QNH
hPa
Press
MSL
hPa
Rain since
9am
mm
Dir  Spd
km/h
Gust
km/h
Spd
kts
Gust
kts
21/10:00am 29.9 - - - - E 11 17 6 9 1013.9 - 0.0
21/09:30am 28.9 - - - - E 13 20 7 11 1013.8 - 0.0
21/09:00am 27.6 - - - - E 11 19 6 10 1013.8 1013.8 0.0
21/08:30am 26.3 - - - - ENE 9 15 5 8 1013.4 - 0.0
21/08:00am 23.6 - - - - E 7 11 4 6 1013.1 - 0.0
21/07:30am 21.3 - - - - ENE 7 9 4 5 1012.9 - 0.0
21/07:00am 21.8 - - - - E 9 13 5 7 1012.8 - 0.0
21/06:30am 21.0 - - - - E 9 11 5 6 1012.7 - 0.0
21/06:00am 21.8 - - - - E 9 11 5 6 1012.5 1012.5 0.0
21/05:30am 22.0 - - - - E 9 11 5 6 1012.5 - 0.0
21/05:00am 22.9 - - - - E 11 15 6 8 1012.3 - 0.0
21/04:30am 22.8 - - - - ESE 6 9 3 5 1012.0 - 0.0
21/04:00am 23.9 - - - - E 9 11 5 6 1011.9 - 0.0
21/03:30am 23.7 - - - - E 11 13 6 7 1012.1 - 0.0
21/03:00am 23.1 - - - - ESE 9 11 5 6 1012.0 1012.0 0.0
21/02:30am 22.9 - - - - CALM 0 0 0 0 1012.0 - 0.0
21/02:00am 24.0 - - - - NW 6 11 3 6 1011.9 - 0.0
21/01:30am 25.6 - - - - NW 9 13 5 7 1012.0 - 0.0
21/01:00am 25.8 - - - - NW 11 13 6 7 1012.2 - 0.0
21/12:30am 26.2 - - - - WNW 11 15 6 8 1012.2 - 0.0
21/12:00am 26.3 - - - - WNW 13 17 7 9 1012.4 1012.4 0.0
 
Date/Time
CST
Temp
°C
App
Temp
°C
Dew
Point
°C
Rel
Hum
%
Delta-T
°C
Wind Press
QNH
hPa
Press
MSL
hPa
Rain since
9am
mm
Dir  Spd
km/h
Gust
km/h
Spd
kts
Gust
kts
20/11:30pm 26.4 - - - - WNW 13 17 7 9 1012.4 - 0.0
20/11:00pm 26.4 - - - - WNW 11 15 6 8 1012.4 - 0.0
20/10:30pm 26.3 - - - - WNW 13 17 7 9 1012.2 - 0.0
20/10:00pm 26.3 - - - - NW 15 19 8 10 1011.9 - 0.0
20/09:30pm 26.4 - - - - WNW 15 19 8 10 1011.8 - 0.0
20/09:00pm 26.5 - - - - WNW 15 20 8 11 1011.8 1011.8 0.0
20/08:30pm 26.6 - - - - WNW 19 22 10 12 1011.7 - 0.0
20/08:00pm 26.6 - - - - NNW 17 20 9 11 1011.4 - 0.0
20/07:30pm 26.8 - - - - NNW 20 26 11 14 1011.0 - 0.0
20/07:00pm 27.3 - - - - NNW 19 24 10 13 1010.9 - 0.0
20/06:30pm 28.2 - - - - NNW 19 24 10 13 1010.8 - 0.0
20/06:00pm 29.5 - - - - NNW 19 26 10 14 1010.5 1010.5 0.0
20/05:30pm 30.7 - - - - NNW 15 22 8 12 1010.4 - 0.0
20/05:00pm 31.5 - - - - N 13 19 7 10 1010.3 - 0.0
20/04:30pm 32.0 - - - - N 13 20 7 11 1010.3 - 0.0
20/04:00pm 32.4 - - - - E 11 20 6 11 1010.4 - 0.0
20/03:30pm 32.5 - - - - SE 13 19 7 10 1010.5 - 0.0
20/03:00pm 32.0 - - - - SE 15 26 8 14 1010.8 1010.8 0.0
20/02:30pm 31.3 - - - - SE 19 30 10 16 1011.3 - 0.0
20/02:00pm 32.3 - - - - ESE 13 22 7 12 1011.9 - 0.0
20/01:30pm 32.1 - - - - ESE 15 26 8 14 1012.5 - 0.0
20/01:00pm 31.5 - - - - ESE 17 26 9 14 1013.0 - 0.0
20/12:30pm 31.8 - - - - ESE 15 26 8 14 1013.3 - 0.0
20/12:00pm 31.0 - - - - SE 13 22 7 12 1013.5 1013.5 0.0
20/11:30am 29.7 - - - - SE 9 17 5 9 1013.9 - 0.0
20/11:00am 29.0 - - - - SW 13 19 7 10 1014.4 - 0.0
20/10:30am 29.3 - - - - WSW 11 24 6 13 1014.9 - 0.0
20/10:00am 28.9 - - - - NNE 7 11 4 6 1014.8 - 0.0
20/09:30am 28.3 - - - - NE 9 13 5 7 1014.7 - 0.0
20/09:00am 26.9 - - - - ENE 7 11 4 6 1014.2 1014.2 0.0
20/08:30am 25.0 - - - - ENE 9 13 5 7 1014.2 - 0.0
20/08:00am 22.9 - - - - E 9 11 5 6 1013.9 - 0.0
20/07:30am 19.8 - - - - E 7 9 4 5 1013.5 - 0.0
20/07:00am 19.8 - - - - E 7 9 4 5 1013.3 - 0.0
20/06:30am 19.7 - - - - E 7 9 4 5 1013.1 - 0.0
20/06:00am 19.8 - - - - E 7 9 4 5 1012.9 1012.9 0.0
20/05:30am 19.8 - - - - ESE 7 9 4 5 1012.6 - 0.0
20/05:00am 20.1 - - - - ESE 7 9 4 5 1012.3 - 0.0
20/04:30am 20.6 - - - - ESE 7 7 4 4 1012.3 - 0.0
20/04:00am 20.8 - - - - E 7 9 4 5 1012.6 - 0.0
20/03:30am 21.2 - - - - ESE 7 9 4 5 1012.7 - 0.0
20/03:00am 22.0 - - - - ESE 7 9 4 5 1012.6 1012.6 0.0
20/02:30am 22.1 - - - - SE 7 9 4 5 1012.8 - 0.0
20/02:00am 22.9 - - - - CALM 0 0 0 0 1012.9 - 0.0
20/01:30am 23.8 - - - - CALM 0 0 0 0 1013.0 - 0.0
20/01:00am 24.3 - - - - N 4 7 2 4 1013.1 - 0.0
20/12:30am 25.7 - - - - N 7 9 4 5 1013.2 - 0.0
20/12:00am 26.0 - - - - NNW 9 13 5 7 1013.3 1013.3 0.0
 
Date/Time
CST
Temp
°C
App
Temp
°C
Dew
Point
°C
Rel
Hum
%
Delta-T
°C
Wind Press
QNH
hPa
Press
MSL
hPa
Rain since
9am
mm
Dir  Spd
km/h
Gust
km/h
Spd
kts
Gust
kts
19/11:30pm 26.2 - - - - NW 11 15 6 8 1013.2 - 0.0
19/11:00pm 26.2 - - - - NNW 13 15 7 8 1013.4 - 0.0
19/10:30pm 26.4 - - - - NNW 13 15 7 8 1013.5 - 0.0
19/10:00pm 26.6 - - - - NNW 15 19 8 10 1013.3 - 0.0
19/09:30pm 26.6 - - - - NNW 15 20 8 11 1013.2 - 0.0
19/09:00pm 26.9 - - - - NNW 15 19 8 10 1012.9 1012.9 0.0
19/08:30pm 26.7 - - - - NNW 15 17 8 9 1012.7 - 0.0
19/08:00pm 26.7 - - - - NNW 15 19 8 10 1012.3 - 0.0
19/07:30pm 26.9 - - - - NNW 15 19 8 10 1011.9 - 0.0
19/07:00pm 27.1 - - - - NNW 17 22 9 12 1011.6 - 0.0
19/06:30pm 28.0 - - - - NNW 19 24 10 13 1011.3 - 0.0
19/06:00pm 30.3 - - - - NNW 15 20 8 11 1010.8 1010.8 0.0
19/05:30pm 32.3 - - - - ENE 11 20 6 11 1010.6 - 0.0
19/05:00pm 33.3 - - - - E 11 20 6 11 1010.3 - 0.0
19/04:30pm 32.9 - - - - ESE 11 20 6 11 1010.3 - 0.0
19/04:00pm 31.9 - - - - SE 13 26 7 14 1010.5 - 0.0
19/03:30pm 32.5 - - - - SSE 11 22 6 12 1010.9 - 0.0
19/03:00pm 32.0 - - - - SE 15 24 8 13 1011.2 1011.2 0.0
19/02:30pm 32.3 - - - - SE 15 28 8 15 1011.6 - 0.0
19/02:00pm 32.2 - - - - SE 13 24 7 13 1012.1 - 0.0
19/01:30pm 32.2 - - - - SE 13 20 7 11 1012.6 - 0.0
19/01:00pm 31.9 - - - - SE 17 26 9 14 1013.2 - 0.0
19/12:30pm 32.0 - - - - SSE 13 24 7 13 1013.8 - 0.0
19/12:00pm 31.1 - - - - S 13 20 7 11 1014.2 1014.2 0.0
19/11:30am 29.7 - - - - SSW 17 26 9 14 1014.6 - 0.0
19/11:00am 29.4 - - - - SW 13 20 7 11 1014.9 - 0.0
19/10:30am 28.3 - - - - WSW 11 19 6 10 1015.0 - 0.0
19/10:00am 28.4 - - - - SW 9 17 5 9 1015.1 - 0.0
19/09:30am 28.4 - - - - SW 7 11 4 6 1014.9 - 0.0
19/09:00am 26.9 - - - - ESE 6 7 3 4 1014.9 1014.9 0.0
19/08:30am 24.3 - - - - ESE 4 7 2 4 1014.7 - 0.0
19/08:00am 21.2 - - - - ESE 7 9 4 5 1014.5 - 0.0
19/07:30am 18.3 - - - - ESE 7 9 4 5 1014.1 - 0.0
19/07:00am 17.7 - - - - SE 7 7 4 4 1013.9 - 0.0
19/06:30am 17.7 - - - - ESE 7 9 4 5 1013.6 - 0.0
19/06:00am 17.9 - - - - ESE 7 9 4 5 1013.3 1013.3 0.0
19/05:30am 18.0 - - - - SE 7 9 4 5 1013.0 - 0.0
19/05:00am 18.2 - - - - SE 7 7 4 4 1012.8 - 0.0
19/04:30am 18.5 - - - - SE 7 7 4 4 1012.8 - 0.0
19/04:00am 18.5 - - - - SE 7 7 4 4 1012.8 - 0.0
19/03:30am 18.7 - - - - SE 7 7 4 4 1012.9 - 0.0
19/03:00am 18.9 - - - - SE 6 7 3 4 1013.2 1013.2 0.0
19/02:30am 19.3 - - - - SSE 7 7 4 4 1013.3 - 0.0
19/02:00am 19.8 - - - - SSE 7 7 4 4 1013.6 - 0.0
19/01:30am 20.2 - - - - SSE 7 9 4 5 1013.7 - 0.0
19/01:00am 20.3 - - - - ESE 6 7 3 4 1013.8 - 0.0
19/12:30am 21.0 - - - - S 7 9 4 5 1013.8 - 0.0
19/12:00am 21.4 - - - - SSE 6 7 3 4 1013.8 1013.8 0.0
 
Date/Time
CST
Temp
°C
App
Temp
°C
Dew
Point
°C
Rel
Hum
%
Delta-T
°C
Wind Press
QNH
hPa
Press
MSL
hPa
Rain since
9am
mm
Dir  Spd
km/h
Gust
km/h
Spd
kts
Gust
kts
18/11:30pm 21.9 - - - - CALM 0 0 0 0 1013.8 - 0.0
18/11:00pm 23.1 - - - - ENE 6 7 3 4 1013.8 - 0.0
18/10:30pm 24.7 - - - - NE 7 11 4 6 1013.7 - 0.0
18/10:00pm 25.4 - - - - NE 7 11 4 6 1013.6 - 0.0
18/09:30pm 26.1 - - - - N 11 15 6 8 1013.3 - 0.0
18/09:00pm 26.6 - - - - N 13 19 7 10 1012.9 1012.9 0.0
18/08:30pm 27.0 - - - - NW 17 22 9 12 1012.5 - 0.0
18/08:00pm 26.9 - - - - NW 19 22 10 12 1012.2 - 0.0
18/07:30pm 27.1 - - - - NNW 17 24 9 13 1011.8 - 0.0
18/07:00pm 27.1 - - - - NNW 17 22 9 12 1011.4 - 0.0
18/06:30pm 27.6 - - - - NNW 19 22 10 12 1010.9 - 0.0
18/06:00pm 28.6 - - - - NNW 19 24 10 13 1010.7 1010.7 0.0
18/05:30pm 29.2 - - - - NNW 20 26 11 14 1010.4 - 0.0
18/05:00pm 30.4 - - - - NNW 19 24 10 13 1010.1 - 0.0
18/04:30pm 30.9 - - - - N 19 28 10 15 1010.0 - 0.0
18/04:00pm 32.1 - - - - N 15 20 8 11 1010.0 - 0.0
18/03:30pm 33.8 - - - - ESE 17 24 9 13 1009.9 - 0.0
18/03:00pm 33.5 - - - - ESE 17 28 9 15 1010.2 1010.2 0.0
18/02:30pm 33.6 - - - - ESE 17 30 9 16 1010.6 - 0.0
18/02:00pm 32.9 - - - - ESE 19 30 10 16 1011.1 - 0.0
18/01:30pm 33.3 - - - - ESE 17 33 9 18 1011.5 - 0.0
18/01:00pm 33.2 - - - - SE 15 28 8 15 1011.8 - 0.0
18/12:30pm 32.6 - - - - SE 13 20 7 11 1012.1 - 0.0
18/12:00pm 32.7 - - - - E 13 20 7 11 1012.6 1012.6 0.0
18/11:30am 32.0 - - - - ESE 15 26 8 14 1013.1 - 0.0
18/11:00am 31.6 - - - - NE 11 17 6 9 1013.3 - 0.0
18/10:30am 30.2 - - - - ENE 13 22 7 12 1013.6 - 0.0

Latest Capital City Observations: Canberra | Sydney | Melbourne | Brisbane | Adelaide | Perth | Hobart | Darwin

Other Formats:

Comma delimited format used in spreadsheet applications
http://www.bom.gov.au/fwo/IDD60901/IDD60901.94122.axf

JavaScript Object Notation format (JSON) in row-major order
http://www.bom.gov.au/fwo/IDD60901/IDD60901.94122.json